Time;durP1;ratioP1;P1;durP2;ratioP2;P2;SDS_P1;SDS_P2;PMS_P1;PMS_P2;Temp;Humidity;BMP_temperature;BMP_pressure;BME280_temperature;BME280_humidity;BME280_pressure;Samples;Min_cycle;Max_cycle;Signal;HPM_P1;HPM_P2
2024/01/15 00:01:34;;;;;;;27.65;15.05;;;0.30;99.90;;;;;;4932539;28;20035;-69
2024/01/15 00:04:00;;;;;;;25.95;15.75;;;0.30;99.90;;;;;;4933168;28;20031;-69
2024/01/15 00:06:26;;;;;;;24.02;14.30;;;0.30;99.90;;;;;;4935494;28;20069;-69
2024/01/15 00:08:52;;;;;;;25.05;14.65;;;0.30;99.90;;;;;;4926866;28;20176;-69
2024/01/15 00:11:18;;;;;;;25.45;15.20;;;0.20;99.90;;;;;;4930791;28;20126;-73
2024/01/15 00:13:43;;;;;;;35.70;16.35;;;0.10;99.90;;;;;;4918713;28;20046;-68
2024/01/15 00:16:09;;;;;;;27.88;15.60;;;-0.10;99.90;;;;;;4932975;28;20031;-71
2024/01/15 00:18:34;;;;;;;23.73;14.15;;;-0.30;99.90;;;;;;4934414;28;20055;-73
2024/01/15 00:21:00;;;;;;;24.40;14.93;;;-0.60;99.90;;;;;;4931642;28;20027;-72
2024/01/15 00:23:25;;;;;;;34.25;15.00;;;-0.70;99.90;;;;;;4928719;28;20047;-70
2024/01/15 00:25:51;;;;;;;26.15;15.10;;;-0.80;99.90;;;;;;4935209;28;20038;-71
2024/01/15 00:28:17;;;;;;;25.88;15.40;;;-1.00;99.90;;;;;;4933662;28;20035;-71
2024/01/15 00:30:42;;;;;;;24.90;15.48;;;-1.10;99.90;;;;;;4928609;28;20536;-71
2024/01/15 00:33:08;;;;;;;26.00;14.82;;;-1.20;99.90;;;;;;4933640;28;20285;-71
2024/01/15 00:35:34;;;;;;;26.33;15.90;;;-1.30;99.90;;;;;;4932961;28;20027;-70
2024/01/15 00:37:59;;;;;;;28.15;16.65;;;-1.40;99.90;;;;;;4933840;28;20027;-66
2024/01/15 00:40:25;;;;;;;30.85;16.60;;;-1.40;99.90;;;;;;4933403;28;20125;-67
2024/01/15 00:42:51;;;;;;;27.48;16.33;;;-1.40;99.90;;;;;;4933455;28;20391;-67
2024/01/15 00:45:17;;;;;;;27.42;15.48;;;-1.50;99.90;;;;;;4933014;28;20055;-66
2024/01/15 00:47:42;;;;;;;29.20;16.27;;;-1.50;99.90;;;;;;4933051;28;20610;-68
2024/01/15 00:50:08;;;;;;;27.88;16.23;;;-1.30;99.90;;;;;;4929107;28;20032;-68
2024/01/15 00:52:34;;;;;;;31.42;17.20;;;-1.10;99.90;;;;;;4931992;28;20051;-68
2024/01/15 00:54:59;;;;;;;33.28;18.88;;;-0.80;99.90;;;;;;4929532;28;20666;-68
2024/01/15 00:57:25;;;;;;;29.35;16.95;;;-0.60;99.90;;;;;;4923969;28;20039;-66
2024/01/15 00:59:51;;;;;;;35.10;20.17;;;-0.40;99.90;;;;;;4931957;28;20035;-66
2024/01/15 01:02:16;;;;;;;37.72;20.35;;;-0.30;99.90;;;;;;4930236;28;21354;-66
2024/01/15 01:04:42;;;;;;;34.75;19.55;;;-0.20;99.90;;;;;;4929863;28;20374;-68
2024/01/15 01:07:07;;;;;;;34.83;20.15;;;-0.10;99.90;;;;;;4928845;28;20540;-67
2024/01/15 01:09:33;;;;;;;31.80;18.00;;;0.00;99.90;;;;;;4929939;28;20122;-68
2024/01/15 01:11:59;;;;;;;31.95;17.70;;;0.10;99.90;;;;;;4932664;28;20100;-68
2024/01/15 01:14:25;;;;;;;31.35;19.00;;;0.10;99.90;;;;;;4935011;28;20347;-67
2024/01/15 01:16:51;;;;;;;33.63;17.60;;;0.10;99.90;;;;;;4933807;28;20130;-68
2024/01/15 01:19:16;;;;;;;35.38;20.05;;;0.10;99.90;;;;;;4910468;28;20019;-68
2024/01/15 01:21:42;;;;;;;37.63;20.55;;;0.20;99.90;;;;;;4933685;28;20047;-68
2024/01/15 01:24:07;;;;;;;35.70;20.10;;;0.20;99.90;;;;;;4927623;28;20027;-67
2024/01/15 01:26:33;;;;;;;30.50;18.95;;;0.30;99.90;;;;;;4931383;28;20032;-67
2024/01/15 01:28:59;;;;;;;32.00;17.77;;;0.30;99.90;;;;;;4926140;28;20064;-67
2024/01/15 01:31:24;;;;;;;31.35;18.23;;;0.30;99.90;;;;;;4922764;28;20041;-66
2024/01/15 01:33:50;;;;;;;39.03;19.60;;;0.30;99.90;;;;;;4925596;28;20106;-67
2024/01/15 01:36:15;;;;;;;29.33;17.00;;;0.30;99.90;;;;;;4930328;28;20039;-68
2024/01/15 01:38:41;;;;;;;29.38;17.65;;;0.40;99.90;;;;;;4925980;28;20532;-67
2024/01/15 01:41:07;;;;;;;34.28;19.00;;;0.40;99.90;;;;;;4929055;28;20036;-67
2024/01/15 01:43:33;;;;;;;33.63;19.42;;;0.40;99.90;;;;;;4922573;28;20027;-67
2024/01/15 01:46:01;;;;;;;31.63;19.50;;;0.50;99.90;;;;;;4922125;28;20665;-67
2024/01/15 01:48:27;;;;;;;41.95;21.15;;;0.50;99.90;;;;;;4928447;28;20082;-68
2024/01/15 01:50:59;;;;;;;36.70;19.40;;;0.60;99.90;;;;;;4929119;28;20414;-67
2024/01/15 01:53:26;;;;;;;32.83;19.05;;;0.60;99.90;;;;;;4927340;28;20063;-73
2024/01/15 01:55:52;;;;;;;31.23;17.92;;;0.60;99.90;;;;;;4928951;28;20079;-71
2024/01/15 01:58:19;;;;;;;31.60;19.38;;;0.60;99.90;;;;;;4924974;28;20241;-71
2024/01/15 02:00:45;;;;;;;29.17;19.33;;;0.60;99.90;;;;;;4930419;28;20031;-71
2024/01/15 02:03:11;;;;;;;32.13;20.10;;;0.60;99.90;;;;;;4926923;28;20158;-71
2024/01/15 02:05:39;;;;;;;31.33;19.73;;;0.60;99.90;;;;;;4925255;28;20122;-71
2024/01/15 02:08:05;;;;;;;31.60;18.20;;;0.50;99.90;;;;;;4926940;28;20063;-71
2024/01/15 02:10:30;;;;;;;31.23;19.58;;;0.50;99.90;;;;;;4926965;28;20045;-71
2024/01/15 02:12:56;;;;;;;31.38;17.92;;;0.50;99.90;;;;;;4929475;28;20070;-71
2024/01/15 02:15:22;;;;;;;27.77;16.15;;;0.50;99.90;;;;;;4923379;28;20138;-72
2024/01/15 02:18:04;;;;;;;29.13;17.67;;;0.50;99.90;;;;;;4928856;29;20103;-71
2024/01/15 02:20:31;;;;;;;29.10;17.30;;;0.50;99.90;;;;;;4927232;28;20031;-71
2024/01/15 02:23:13;;;;;;;29.33;17.10;;;0.50;99.90;;;;;;4930257;28;20031;-71
2024/01/15 02:25:45;;;;;;;26.20;16.10;;;0.60;99.90;;;;;;4928679;28;20512;-71
2024/01/15 02:28:16;;;;;;;29.95;18.17;;;0.60;99.90;;;;;;4926590;28;20457;-71
2024/01/15 02:30:43;;;;;;;29.42;17.40;;;0.70;99.90;;;;;;4928093;28;20039;-71
2024/01/15 02:33:10;;;;;;;29.75;17.67;;;0.50;99.90;;;;;;4923627;28;20035;-71
2024/01/15 02:35:38;;;;;;;28.42;16.88;;;0.30;99.90;;;;;;4928325;28;20027;-71
2024/01/15 02:38:05;;;;;;;31.45;19.10;;;0.20;99.90;;;;;;4927838;28;20776;-71
2024/01/15 02:40:31;;;;;;;42.60;25.08;;;0.20;99.90;;;;;;4929737;28;20070;-71
2024/01/15 02:42:57;;;;;;;36.28;19.33;;;0.20;99.90;;;;;;4929179;28;20046;-71
2024/01/15 02:45:23;;;;;;;91.20;54.05;;;0.30;99.90;;;;;;4926146;28;20496;-71
2024/01/15 02:47:49;;;;;;;31.05;18.75;;;0.30;99.90;;;;;;4926319;28;20032;-71
2024/01/15 02:50:14;;;;;;;34.45;20.33;;;0.30;99.90;;;;;;4924524;28;20039;-72
2024/01/15 02:52:41;;;;;;;39.22;21.42;;;0.40;99.90;;;;;;4928851;28;20035;-71
2024/01/15 02:55:07;;;;;;;34.42;20.23;;;0.40;99.90;;;;;;4927900;28;20036;-72
2024/01/15 02:57:33;;;;;;;47.50;23.13;;;0.50;99.90;;;;;;4926466;28;20091;-71
2024/01/15 02:59:58;;;;;;;50.10;22.92;;;0.50;99.90;;;;;;4930734;28;20047;-71
2024/01/15 03:02:24;;;;;;;47.78;22.98;;;0.60;99.90;;;;;;4926684;28;20151;-71
2024/01/15 03:04:49;;;;;;;35.92;19.77;;;0.60;99.90;;;;;;4934466;28;20074;-72
2024/01/15 03:07:15;;;;;;;29.77;18.55;;;0.70;99.90;;;;;;4931038;28;20720;-72
2024/01/15 03:09:41;;;;;;;36.30;21.92;;;0.60;99.90;;;;;;4932859;28;20148;-71
2024/01/15 03:12:07;;;;;;;30.42;17.65;;;0.60;99.90;;;;;;4930839;28;20047;-71
2024/01/15 03:14:32;;;;;;;31.20;17.98;;;0.50;99.90;;;;;;4936679;28;20118;-71
2024/01/15 03:16:58;;;;;;;34.92;20.80;;;0.50;99.90;;;;;;4934586;28;20131;-72
2024/01/15 03:19:23;;;;;;;34.25;20.23;;;0.50;99.90;;;;;;4928211;28;20028;-71
2024/01/15 03:21:49;;;;;;;33.38;19.50;;;0.50;99.90;;;;;;4931727;28;20409;-71
2024/01/15 03:24:14;;;;;;;33.03;19.23;;;0.30;99.90;;;;;;4929639;28;20077;-68
2024/01/15 03:26:40;;;;;;;27.33;17.38;;;0.30;99.90;;;;;;4930976;28;20058;-68
2024/01/15 03:29:07;;;;;;;29.73;16.42;;;0.30;99.90;;;;;;4929876;28;20149;-67
2024/01/15 03:31:32;;;;;;;34.25;17.60;;;0.20;99.90;;;;;;4928195;28;20046;-67
2024/01/15 03:33:58;;;;;;;31.65;17.73;;;-0.20;99.90;;;;;;4928598;28;20059;-68
2024/01/15 03:36:23;;;;;;;33.03;18.40;;;-0.30;99.90;;;;;;4929108;28;20101;-67
2024/01/15 03:38:49;;;;;;;31.13;18.17;;;-0.40;99.90;;;;;;4930212;28;20113;-68
2024/01/15 03:41:15;;;;;;;29.05;17.50;;;-0.30;99.90;;;;;;4924331;28;20032;-71
2024/01/15 03:43:40;;;;;;;30.38;18.08;;;-0.30;99.90;;;;;;4934042;28;20039;-71
2024/01/15 03:46:06;;;;;;;28.42;17.45;;;-0.40;99.90;;;;;;4937712;28;20035;-71
2024/01/15 03:48:32;;;;;;;32.58;19.73;;;-0.50;99.90;;;;;;4936137;28;20038;-71
2024/01/15 03:50:57;;;;;;;36.25;21.13;;;-0.60;99.90;;;;;;4932242;28;20032;-71
2024/01/15 03:53:23;;;;;;;35.22;20.95;;;-0.60;99.90;;;;;;4937975;28;20054;-71
2024/01/15 03:55:49;;;;;;;38.13;21.45;;;-0.70;99.90;;;;;;4933675;28;20038;-71
2024/01/15 03:58:15;;;;;;;37.83;21.88;;;-0.70;99.90;;;;;;4933427;28;20483;-67
2024/01/15 04:00:41;;;;;;;37.85;21.80;;;-0.70;99.90;;;;;;4933119;28;20035;-68
2024/01/15 04:03:07;;;;;;;37.63;22.75;;;-0.80;99.90;;;;;;4934376;28;20514;-68
2024/01/15 04:05:33;;;;;;;34.38;22.00;;;-0.70;99.90;;;;;;4934801;28;20025;-67
2024/01/15 04:07:58;;;;;;;40.35;22.25;;;-0.80;99.90;;;;;;4935267;28;21448;-67
2024/01/15 04:10:24;;;;;;;42.38;24.50;;;-0.80;99.90;;;;;;4932765;28;20063;-68
2024/01/15 04:12:49;;;;;;;38.65;23.33;;;-0.80;99.90;;;;;;4937272;28;20053;-68
2024/01/15 04:15:15;;;;;;;53.95;31.67;;;-0.80;99.90;;;;;;4928513;28;20539;-68
2024/01/15 04:17:41;;;;;;;51.35;29.13;;;-0.70;99.90;;;;;;4935768;28;20034;-67
2024/01/15 04:20:07;;;;;;;47.92;25.30;;;-0.70;99.90;;;;;;4931629;28;20649;-68
2024/01/15 04:22:36;;;;;;;39.38;23.80;;;-0.60;99.90;;;;;;4935650;28;20420;-68
2024/01/15 04:25:03;;;;;;;42.47;26.08;;;-0.50;99.90;;;;;;4936182;28;20027;-67
2024/01/15 04:27:28;;;;;;;43.30;26.05;;;-0.40;99.90;;;;;;4932420;28;20464;-68
2024/01/15 04:29:54;;;;;;;43.28;25.13;;;-0.30;99.90;;;;;;4937168;28;20126;-67
2024/01/15 04:32:20;;;;;;;39.30;23.60;;;-0.30;99.90;;;;;;4933162;28;20536;-68
2024/01/15 04:34:45;;;;;;;72.88;31.17;;;-0.40;99.90;;;;;;4933653;28;20692;-68
2024/01/15 04:37:11;;;;;;;76.70;33.58;;;-0.30;99.90;;;;;;4934319;28;20023;-67
2024/01/15 04:39:37;;;;;;;62.53;27.23;;;-0.20;99.90;;;;;;4921859;28;20496;-68
2024/01/15 04:42:03;;;;;;;42.45;23.35;;;-0.40;99.90;;;;;;4934898;28;20062;-68
2024/01/15 04:44:29;;;;;;;42.85;24.25;;;-0.60;99.90;;;;;;4931992;28;20063;-68
2024/01/15 04:46:54;;;;;;;60.30;33.53;;;-0.80;99.90;;;;;;4938661;28;20123;-67
2024/01/15 04:49:20;;;;;;;44.88;26.80;;;-0.70;99.90;;;;;;4927349;28;20041;-68
2024/01/15 04:51:46;;;;;;;49.63;32.17;;;-0.50;99.90;;;;;;4935994;28;20054;-67
2024/01/15 04:54:11;;;;;;;46.17;29.25;;;-0.50;99.90;;;;;;4932692;28;20094;-68
2024/01/15 04:56:37;;;;;;;45.00;26.02;;;-0.40;99.90;;;;;;4934819;28;20030;-68
2024/01/15 04:59:03;;;;;;;37.75;23.13;;;-0.50;99.90;;;;;;4932140;28;20455;-68
2024/01/15 05:01:32;;;;;;;47.97;36.33;;;-0.60;99.90;;;;;;4923985;28;20055;-68
2024/01/15 05:03:58;;;;;;;48.95;32.20;;;-0.60;99.90;;;;;;4935149;28;20102;-68
2024/01/15 05:06:24;;;;;;;42.75;28.73;;;-0.60;99.90;;;;;;4931215;28;21000;-68
2024/01/15 05:08:49;;;;;;;37.72;22.45;;;-0.60;99.90;;;;;;4936912;28;20066;-67
2024/01/15 05:11:15;;;;;;;37.80;22.10;;;-0.60;99.90;;;;;;4932706;28;20035;-67
2024/01/15 05:13:41;;;;;;;41.38;22.63;;;-0.80;99.90;;;;;;4935770;28;20304;-67
2024/01/15 05:16:06;;;;;;;33.70;21.13;;;-0.80;99.90;;;;;;4929291;28;20708;-67
2024/01/15 05:18:32;;;;;;;38.63;21.80;;;-0.80;99.90;;;;;;4927746;28;20039;-67
2024/01/15 05:20:57;;;;;;;32.35;19.75;;;-0.60;99.90;;;;;;4932640;28;20043;-68
2024/01/15 05:23:23;;;;;;;33.30;18.58;;;-0.50;99.90;;;;;;4933556;29;20035;-67
2024/01/15 05:25:48;;;;;;;31.13;19.63;;;-0.40;99.90;;;;;;4934071;28;20031;-68
2024/01/15 05:28:14;;;;;;;31.10;18.17;;;-0.30;99.90;;;;;;4921617;28;20102;-66
2024/01/15 05:30:40;;;;;;;27.60;18.35;;;-0.20;99.90;;;;;;4925973;28;20067;-69
2024/01/15 05:33:07;;;;;;;27.98;17.50;;;-0.10;99.90;;;;;;4933588;28;20050;-68
2024/01/15 05:35:33;;;;;;;29.38;17.85;;;0.00;99.90;;;;;;4931283;28;20034;-68
2024/01/15 05:37:58;;;;;;;29.63;19.10;;;0.10;99.90;;;;;;4933187;28;20023;-67
2024/01/15 05:40:24;;;;;;;30.65;19.92;;;0.10;99.90;;;;;;4935260;28;20433;-68
2024/01/15 05:42:50;;;;;;;30.83;16.90;;;0.10;99.90;;;;;;4932792;28;20657;-68
2024/01/15 05:45:15;;;;;;;28.13;17.73;;;0.10;99.90;;;;;;4928684;28;20038;-69
2024/01/15 05:47:41;;;;;;;26.40;16.25;;;0.10;99.90;;;;;;4935309;28;20101;-69
2024/01/15 05:50:07;;;;;;;25.25;16.40;;;0.10;99.90;;;;;;4937020;28;20034;-69
2024/01/15 05:52:32;;;;;;;26.15;16.13;;;0.10;99.90;;;;;;4928855;28;20188;-69
2024/01/15 05:54:58;;;;;;;30.15;18.75;;;0.20;99.90;;;;;;4935472;28;20031;-69
2024/01/15 05:57:24;;;;;;;30.73;16.20;;;0.30;99.90;;;;;;4933393;28;20031;-69
2024/01/15 05:59:49;;;;;;;42.40;20.75;;;0.30;99.90;;;;;;4933098;28;20072;-68
2024/01/15 06:02:15;;;;;;;40.25;20.15;;;0.40;99.90;;;;;;4927350;28;20035;-68
2024/01/15 06:04:40;;;;;;;32.30;17.92;;;0.30;99.90;;;;;;4925764;28;20035;-69
2024/01/15 06:07:06;;;;;;;35.63;19.63;;;0.40;99.90;;;;;;4923700;28;20058;-69
2024/01/15 06:09:31;;;;;;;43.85;21.23;;;0.50;99.90;;;;;;4926720;28;20568;-72
2024/01/15 06:11:57;;;;;;;38.25;20.02;;;0.50;99.90;;;;;;4925959;28;20042;-71
2024/01/15 06:14:23;;;;;;;28.83;16.35;;;0.60;99.90;;;;;;4927755;28;20034;-72
2024/01/15 06:16:49;;;;;;;29.45;18.23;;;0.60;99.90;;;;;;4925938;28;20086;-73
2024/01/15 06:19:14;;;;;;;27.67;16.67;;;0.60;99.90;;;;;;4924239;28;20050;-72
2024/01/15 06:21:40;;;;;;;23.33;13.40;;;0.60;99.90;;;;;;4927311;28;20028;-73
2024/01/15 06:24:06;;;;;;;22.85;12.00;;;0.50;99.90;;;;;;4926674;28;20028;-73
2024/01/15 06:26:31;;;;;;;32.33;14.23;;;0.60;99.90;;;;;;4925692;28;20488;-73
2024/01/15 06:28:57;;;;;;;11.18;7.72;;;0.80;99.90;;;;;;4927030;28;20142;-69
2024/01/15 06:31:23;;;;;;;12.90;8.18;;;0.70;99.90;;;;;;4922771;28;20047;-70
2024/01/15 06:33:48;;;;;;;20.63;12.77;;;1.00;99.90;;;;;;4928676;28;20138;-70
2024/01/15 06:36:16;;;;;;;27.10;13.50;;;0.90;99.90;;;;;;4923251;28;20039;-66
2024/01/15 06:38:43;;;;;;;15.68;10.35;;;0.70;99.90;;;;;;4927473;28;20032;-71
2024/01/15 06:41:09;;;;;;;18.88;11.65;;;0.70;99.90;;;;;;4923116;28;20132;-72
2024/01/15 06:43:35;;;;;;;14.13;9.00;;;0.70;99.90;;;;;;4911245;28;20597;-71
2024/01/15 06:46:00;;;;;;;19.00;8.75;;;0.70;99.90;;;;;;4929989;28;20567;-72
2024/01/15 06:48:26;;;;;;;13.75;7.38;;;0.80;99.90;;;;;;4937130;28;20396;-70
2024/01/15 06:50:52;;;;;;;7.53;4.72;;;1.00;99.90;;;;;;4936405;28;20112;-71
2024/01/15 06:53:18;;;;;;;15.02;7.82;;;1.10;99.90;;;;;;4940573;28;20375;-72
2024/01/15 06:55:43;;;;;;;13.73;8.25;;;1.40;99.90;;;;;;4940531;28;20031;-71
2024/01/15 06:58:09;;;;;;;20.95;11.30;;;1.30;99.90;;;;;;4937979;28;20031;-71
2024/01/15 07:00:34;;;;;;;20.10;11.75;;;1.30;99.90;;;;;;4937575;28;20032;-71
2024/01/15 07:03:00;;;;;;;13.13;6.30;;;1.10;99.90;;;;;;4916496;29;20439;-71
2024/01/15 07:05:25;;;;;;;11.73;6.93;;;1.10;99.90;;;;;;4940580;28;20535;-75
2024/01/15 07:07:51;;;;;;;13.73;7.88;;;1.20;99.90;;;;;;4931516;28;20051;-77
2024/01/15 07:10:17;;;;;;;13.27;8.93;;;1.20;99.90;;;;;;4939407;28;20043;-75
2024/01/15 07:12:43;;;;;;;11.52;6.75;;;1.10;99.90;;;;;;4935392;28;20039;-72
2024/01/15 07:15:09;;;;;;;13.77;7.40;;;1.10;99.90;;;;;;4950042;28;20099;-70
2024/01/15 07:17:35;;;;;;;13.52;7.60;;;1.20;99.90;;;;;;4936636;28;20522;-71
2024/01/15 07:20:01;;;;;;;10.73;7.05;;;1.10;99.90;;;;;;4934501;28;20027;-66
2024/01/15 07:22:27;;;;;;;10.60;6.75;;;1.20;99.90;;;;;;4940974;28;20044;-68
2024/01/15 07:24:53;;;;;;;10.38;7.10;;;1.20;99.90;;;;;;4936753;28;20041;-68
2024/01/15 07:27:18;;;;;;;10.50;6.65;;;1.20;99.90;;;;;;4932971;28;20110;-69
2024/01/15 07:29:44;;;;;;;13.57;7.65;;;1.30;99.90;;;;;;4929161;28;20127;-69
2024/01/15 07:32:10;;;;;;;10.43;6.63;;;1.20;99.90;;;;;;4937851;28;20087;-74
2024/01/15 07:34:36;;;;;;;10.18;6.90;;;1.20;99.90;;;;;;4935998;28;20042;-69
2024/01/15 07:37:02;;;;;;;12.25;7.70;;;1.20;99.90;;;;;;4948668;28;20043;-75
2024/01/15 07:39:28;;;;;;;11.40;7.82;;;1.20;99.90;;;;;;4933559;28;20498;-66
2024/01/15 07:41:54;;;;;;;11.48;7.85;;;1.20;99.90;;;;;;4932411;28;20031;-66
2024/01/15 07:44:20;;;;;;;12.30;7.97;;;1.30;99.90;;;;;;4932508;28;20038;-66
2024/01/15 07:46:48;;;;;;;12.82;7.75;;;1.30;99.90;;;;;;4938198;28;20356;-67
2024/01/15 07:49:14;;;;;;;23.45;15.23;;;1.30;99.90;;;;;;4936193;28;20131;-67
2024/01/15 07:51:40;;;;;;;13.27;9.13;;;1.30;99.90;;;;;;4936519;28;20046;-68
2024/01/15 07:54:07;;;;;;;14.98;8.40;;;1.40;99.90;;;;;;4934557;28;20107;-68
2024/01/15 07:56:33;;;;;;;15.35;9.68;;;1.50;99.90;;;;;;4933449;28;20170;-68
2024/01/15 07:58:58;;;;;;;13.48;8.95;;;1.60;99.90;;;;;;4939743;28;20077;-68
2024/01/15 08:01:24;;;;;;;11.20;7.95;;;1.70;99.90;;;;;;4933453;28;20036;-65
2024/01/15 08:03:50;;;;;;;11.32;8.02;;;1.70;99.90;;;;;;4934049;28;20035;-66
2024/01/15 08:06:16;;;;;;;14.70;7.90;;;1.70;99.90;;;;;;4936315;28;20161;-65
2024/01/15 08:08:41;;;;;;;12.73;8.02;;;1.70;99.90;;;;;;4898558;28;1124124;-67
2024/01/15 08:11:07;;;;;;;13.85;8.10;;;1.70;99.90;;;;;;4935649;28;20508;-68
2024/01/15 08:13:33;;;;;;;22.35;14.20;;;1.70;99.90;;;;;;4937001;28;20032;-68
2024/01/15 08:15:58;;;;;;;13.52;8.60;;;1.80;99.90;;;;;;4932251;28;20233;-68
2024/01/15 08:18:25;;;;;;;13.82;7.97;;;1.90;99.90;;;;;;4935831;28;20094;-68
2024/01/15 08:20:51;;;;;;;11.05;7.13;;;1.90;99.90;;;;;;4921039;28;20027;-67
2024/01/15 08:23:17;;;;;;;11.55;7.50;;;1.90;99.90;;;;;;4934015;28;20099;-67
2024/01/15 08:25:43;;;;;;;11.75;7.97;;;1.90;99.90;;;;;;4935041;28;20623;-66
2024/01/15 08:28:08;;;;;;;18.70;9.98;;;1.90;99.90;;;;;;4934245;28;20066;-66
2024/01/15 08:30:34;;;;;;;12.38;7.55;;;1.90;99.90;;;;;;4937644;28;20039;-67
2024/01/15 08:33:00;;;;;;;10.85;6.85;;;1.90;99.90;;;;;;4935009;28;20047;-68
2024/01/15 08:35:26;;;;;;;12.27;7.57;;;2.10;99.90;;;;;;4935485;28;20071;-68
2024/01/15 08:37:52;;;;;;;11.25;7.10;;;2.20;99.90;;;;;;4938846;28;20070;-67
2024/01/15 08:40:18;;;;;;;10.88;7.22;;;2.30;99.90;;;;;;4917813;29;20024;-68
2024/01/15 08:42:47;;;;;;;31.92;15.20;;;2.60;99.90;;;;;;4933491;28;20614;-68
2024/01/15 08:45:14;;;;;;;10.63;7.18;;;2.90;99.90;;;;;;4935825;28;20420;-69
2024/01/15 08:47:39;;;;;;;10.20;6.47;;;3.30;99.90;;;;;;4938687;28;20038;-69
2024/01/15 08:50:10;;;;;;;11.20;7.25;;;3.30;99.90;;;;;;4938136;28;20023;-68
2024/01/15 08:52:35;;;;;;;12.10;7.25;;;3.40;99.90;;;;;;4936736;28;20460;-68
2024/01/15 08:55:01;;;;;;;11.52;7.47;;;3.20;99.90;;;;;;4931110;28;20086;-67
2024/01/15 08:57:27;;;;;;;15.73;6.80;;;3.40;99.90;;;;;;4931363;28;20090;-67
2024/01/15 08:59:52;;;;;;;11.68;7.53;;;3.30;99.90;;;;;;4932734;28;20035;-68
2024/01/15 09:02:18;;;;;;;10.88;7.38;;;3.40;99.90;;;;;;4936651;28;20082;-67
2024/01/15 09:04:43;;;;;;;11.57;7.05;;;3.70;99.90;;;;;;4936009;28;20075;-67
2024/01/15 09:07:09;;;;;;;10.88;6.15;;;3.90;99.90;;;;;;4937676;28;20058;-68
2024/01/15 09:09:34;;;;;;;9.23;5.70;;;4.10;99.90;;;;;;4935546;28;20142;-70
2024/01/15 09:12:00;;;;;;;9.30;6.05;;;3.90;99.90;;;;;;4929970;28;20567;-70
2024/01/15 09:14:26;;;;;;;9.35;5.60;;;4.00;99.90;;;;;;4936341;28;20170;-70
2024/01/15 09:16:53;;;;;;;8.38;5.30;;;4.00;99.90;;;;;;4937301;28;20125;-70
2024/01/15 09:19:18;;;;;;;7.50;4.97;;;4.00;99.90;;;;;;4929342;28;21129;-71
2024/01/15 09:21:44;;;;;;;7.45;4.75;;;4.00;99.90;;;;;;4931672;28;20596;-70
2024/01/15 09:24:10;;;;;;;8.73;5.80;;;3.90;99.90;;;;;;4934476;28;20274;-69
2024/01/15 09:26:35;;;;;;;8.93;5.90;;;3.70;99.90;;;;;;4935626;28;20514;-70
2024/01/15 09:29:01;;;;;;;8.25;5.53;;;3.60;99.90;;;;;;4936082;28;20050;-69
2024/01/15 09:31:27;;;;;;;8.18;5.22;;;3.50;99.90;;;;;;4938106;28;20154;-69
2024/01/15 09:33:55;;;;;;;6.78;5.13;;;3.60;99.90;;;;;;4940309;28;20035;-70
2024/01/15 09:36:22;;;;;;;8.82;5.20;;;3.50;99.90;;;;;;4931859;28;20086;-70
2024/01/15 09:38:48;;;;;;;9.13;4.95;;;3.50;99.90;;;;;;4932670;28;20547;-70
2024/01/15 09:41:14;;;;;;;7.90;4.95;;;3.60;99.90;;;;;;4934145;28;20114;-70
2024/01/15 09:43:40;;;;;;;12.13;6.20;;;3.70;99.90;;;;;;4936844;28;20027;-70
2024/01/15 09:46:06;;;;;;;9.52;6.47;;;3.80;99.90;;;;;;4921510;28;20023;-69
2024/01/15 09:48:34;;;;;;;14.65;9.55;;;3.90;99.90;;;;;;4935005;28;20042;-70
2024/01/15 09:51:05;;;;;;;11.90;6.75;;;4.00;99.90;;;;;;4931583;28;20046;-70
2024/01/15 09:53:31;;;;;;;15.70;9.40;;;4.10;99.90;;;;;;4936326;28;20082;-69
2024/01/15 09:55:58;;;;;;;12.10;7.72;;;4.20;99.90;;;;;;4931039;28;20098;-70
2024/01/15 09:58:24;;;;;;;10.18;6.57;;;4.30;99.90;;;;;;4936193;28;20087;-70
2024/01/15 10:00:51;;;;;;;40.67;24.00;;;4.30;99.90;;;;;;4934614;28;20111;-70
2024/01/15 10:03:16;;;;;;;17.13;11.48;;;4.20;99.90;;;;;;4933282;28;20094;-70
2024/01/15 10:05:43;;;;;;;10.75;7.20;;;4.20;99.90;;;;;;4927943;28;20039;-70
2024/01/15 10:08:10;;;;;;;9.07;5.85;;;4.30;99.90;;;;;;4929865;28;20054;-69
2024/01/15 10:10:37;;;;;;;15.35;9.13;;;4.40;99.90;;;;;;4933884;28;20090;-70
2024/01/15 10:13:04;;;;;;;15.15;8.77;;;4.50;99.90;;;;;;4929305;28;20074;-71
2024/01/15 10:15:34;;;;;;;8.52;6.05;;;4.60;99.90;;;;;;4937708;28;20023;-70
2024/01/15 10:17:59;;;;;;;8.65;5.75;;;4.70;99.90;;;;;;4935039;28;20059;-71
2024/01/15 10:20:25;;;;;;;8.60;5.00;;;4.80;99.90;;;;;;4933454;28;20217;-71
2024/01/15 10:22:51;;;;;;;5.88;3.97;;;4.70;99.90;;;;;;4932108;28;20028;-68
2024/01/15 10:25:22;;;;;;;5.88;4.07;;;4.50;99.90;;;;;;4936949;28;20538;-69
2024/01/15 10:28:02;;;;;;;5.37;3.80;;;4.30;99.90;;;;;;4934562;28;20484;-68
2024/01/15 10:30:28;;;;;;;5.95;3.92;;;4.30;99.90;;;;;;4935477;28;20071;-68
2024/01/15 10:33:01;;;;;;;4.60;3.78;;;4.30;99.90;;;;;;4929204;28;20498;-70
2024/01/15 10:35:30;;;;;;;5.93;3.88;;;4.30;99.90;;;;;;4935291;28;20022;-69
2024/01/15 10:37:56;;;;;;;6.07;4.00;;;4.30;99.90;;;;;;4927694;28;20050;-70
2024/01/15 10:40:22;;;;;;;13.25;4.18;;;4.40;99.90;;;;;;4929789;28;20027;-74
2024/01/15 10:42:48;;;;;;;7.25;3.88;;;4.30;99.90;;;;;;4936655;28;20031;-74
2024/01/15 10:45:14;;;;;;;6.20;3.83;;;4.30;99.90;;;;;;4934338;28;20023;-69
2024/01/15 10:47:42;;;;;;;7.05;4.88;;;4.30;99.90;;;;;;4934543;28;20039;-69
2024/01/15 10:50:08;;;;;;;5.82;3.78;;;4.50;99.90;;;;;;4937318;28;20050;-69
2024/01/15 10:52:40;;;;;;;6.05;3.88;;;4.50;99.90;;;;;;4931604;28;20047;-69
2024/01/15 10:55:08;;;;;;;6.80;4.28;;;4.60;99.90;;;;;;4932960;28;20058;-69
2024/01/15 10:57:35;;;;;;;6.82;4.07;;;4.50;99.90;;;;;;4918792;28;20500;-69
2024/01/15 11:00:05;;;;;;;5.03;4.05;;;4.50;99.90;;;;;;4933150;28;20665;-69
2024/01/15 11:02:32;;;;;;;6.05;4.40;;;4.60;99.90;;;;;;4935785;28;20039;-70
2024/01/15 11:04:59;;;;;;;7.80;4.20;;;4.70;99.90;;;;;;4933111;28;20031;-76
2024/01/15 11:07:25;;;;;;;8.30;4.68;;;4.60;99.90;;;;;;4932696;28;20438;-74
2024/01/15 11:09:51;;;;;;;7.93;3.85;;;4.70;99.90;;;;;;4930029;28;20568;-75
2024/01/15 11:12:19;;;;;;;5.90;4.20;;;4.70;99.90;;;;;;4936049;28;20094;-75
2024/01/15 11:14:49;;;;;;;5.57;4.00;;;4.80;99.90;;;;;;4934613;28;20023;-74
2024/01/15 11:17:16;;;;;;;7.72;4.55;;;4.70;99.90;;;;;;4933896;28;20058;-74
2024/01/15 11:19:46;;;;;;;6.35;4.43;;;4.70;99.90;;;;;;4934553;28;20043;-74
2024/01/15 11:22:33;;;;;;;6.63;4.30;;;4.60;99.90;;;;;;4933920;28;20487;-74
2024/01/15 11:25:04;;;;;;;6.03;4.13;;;4.60;99.90;;;;;;4941527;28;20058;-73
2024/01/15 11:27:44;;;;;;;5.13;3.60;;;4.50;99.90;;;;;;4930114;28;20035;-70
2024/01/15 11:30:12;;;;;;;6.05;4.32;;;4.30;99.90;;;;;;4926214;28;20063;-69
2024/01/15 11:32:41;;;;;;;5.70;3.88;;;4.20;99.90;;;;;;4934207;28;20071;-69
2024/01/15 11:35:08;;;;;;;5.45;4.22;;;4.30;99.90;;;;;;4938762;28;20031;-69
2024/01/15 11:37:54;;;;;;;8.05;3.70;;;4.30;99.90;;;;;;4939062;28;20039;-69
2024/01/15 11:40:35;;;;;;;4.82;3.80;;;4.20;99.90;;;;;;4936179;28;20039;-70
2024/01/15 11:43:03;;;;;;;5.78;3.83;;;4.20;99.90;;;;;;4933513;28;20031;-70
2024/01/15 11:45:30;;;;;;;6.95;3.92;;;4.20;99.90;;;;;;4931364;28;20130;-71
2024/01/15 11:48:12;;;;;;;6.38;4.18;;;4.30;99.90;;;;;;4935187;28;20082;-70
2024/01/15 11:50:49;;;;;;;5.47;3.58;;;4.30;99.90;;;;;;4935444;28;20027;-71
2024/01/15 11:53:27;;;;;;;5.43;3.63;;;4.20;99.90;;;;;;4933655;28;20106;-70
2024/01/15 11:55:55;;;;;;;4.97;3.33;;;4.20;99.90;;;;;;4936373;28;20043;-70
2024/01/15 11:58:21;;;;;;;5.90;3.35;;;4.20;99.90;;;;;;4913345;28;20520;-70
2024/01/15 12:00:52;;;;;;;36.15;20.05;;;4.30;99.90;;;;;;4939418;28;20058;-70
2024/01/15 12:03:23;;;;;;;33.42;20.70;;;4.40;99.90;;;;;;4938845;28;22108;-70
2024/01/15 12:05:48;;;;;;;12.43;8.02;;;4.40;99.90;;;;;;4937018;28;20392;-70
2024/01/15 12:08:14;;;;;;;8.35;5.40;;;4.40;99.90;;;;;;4931674;28;20057;-70
2024/01/15 12:10:41;;;;;;;9.88;6.13;;;4.50;99.90;;;;;;4938833;28;20031;-70
2024/01/15 12:13:15;;;;;;;97.45;49.88;;;4.50;99.90;;;;;;4935326;28;20126;-70
2024/01/15 12:15:42;;;;;;;24.73;14.90;;;4.40;99.90;;;;;;4937323;28;20106;-71
2024/01/15 12:18:10;;;;;;;28.60;16.55;;;4.40;99.90;;;;;;4934540;28;20501;-68
2024/01/15 12:20:36;;;;;;;57.83;31.70;;;4.40;99.90;;;;;;4938549;28;20035;-69
2024/01/15 12:23:05;;;;;;;30.92;18.83;;;4.40;99.90;;;;;;4937205;28;20328;-69
2024/01/15 12:25:32;;;;;;;28.25;19.95;;;4.50;99.90;;;;;;4935415;28;20031;-69
2024/01/15 12:27:59;;;;;;;7.65;4.63;;;4.50;99.90;;;;;;4937077;28;20023;-69
2024/01/15 12:30:31;;;;;;;13.48;9.70;;;4.50;99.90;;;;;;4929440;28;20035;-69
2024/01/15 12:32:57;;;;;;;9.20;7.00;;;4.50;99.90;;;;;;4938325;28;20043;-69
2024/01/15 12:35:26;;;;;;;11.50;8.18;;;4.40;99.90;;;;;;4937124;28;20050;-71
2024/01/15 12:37:51;;;;;;;15.82;11.02;;;4.50;99.90;;;;;;4938068;28;20504;-72